Catàleg de serveis del Meteocat
Campanya meteocatpedra

Dades de l'estació automàtica Vallfogona de Balaguer

?
?
Resum diari 21:30 TU
Dades diàries de l'estació meteorològica
Temperatura mitjana 14.7 °C
Temperatura màxima 19.1 °C 15:28 TU
Temperatura mínima 9.3 °C 3:41 TU
Humitat relativa mitjana 61%
Precipitació acumulada 0.0 mm
Ratxa màxima del vent (2 m) 33.8 km/h - 141º 17:02 TU
Irradiació solar global 7.3 MJ/m2

El tram horari està expressat en Temps Universal (TU). Cal sumar una hora en horari d'hivern i dues en horari d'estiu per passar a l'hora oficial.

Vallfogona de Balaguer

Metadades estació meteorol´gica
Municipi Vallfogona de Balaguer
Comarca Noguera
Altitud 238 m
Data alta 17.10.1990
Estat actual Operativa
Dades de període
Període
TU
TM
°C
TX
°C
TN
°C
HRM
%
PPT
mm
VVM (2 m)
km/h
DVM (2 m)
graus
VVX (2 m)
km/h
RS
W/m2
00:00 - 00:30 11.6 12.0 11.2 78 0.0 6.1 137 11.2 0
00:30 - 01:00 11.2 11.2 11.1 78 0.0 7.2 126 14.0 0
01:00 - 01:30 11.3 11.5 11.2 77 0.0 4.3 118 11.5 0
01:30 - 02:00 11.2 11.3 10.8 79 0.0 2.9 113 11.5 0
02:00 - 02:30 10.8 11.0 10.4 82 0.0 2.5 102 9.4 0
02:30 - 03:00 10.3 10.4 10.2 84 0.0 3.6 114 11.2 0
03:00 - 03:30 10.0 10.4 9.5 85 0.0 4.0 56 11.5 0
03:30 - 04:00 9.6 10.1 9.3 87 0.0 5.8 30 14.8 0
04:00 - 04:30 10.1 10.2 9.8 86 0.0 2.9 63 16.2 0
04:30 - 05:00 10.1 10.3 9.8 87 0.0 4.0 119 9.4 0
05:00 - 05:30 10.4 10.4 10.2 86 0.0 7.2 126 14.4 1
05:30 - 06:00 10.0 10.2 9.9 87 0.0 1.8 110 6.5 27
06:00 - 06:30 10.4 10.9 10.2 85 0.0 0.7 50 5.8 72
06:30 - 07:00 11.1 11.4 10.9 82 0.0 4.0 19 9.0 126
07:00 - 07:30 12.1 12.6 11.4 79 0.0 2.5 68 7.6 169
07:30 - 08:00 13.8 14.7 12.6 72 0.0 3.2 84 11.9 328
08:00 - 08:30 14.9 15.3 14.6 67 0.0 2.9 108 9.0 292
08:30 - 09:00 14.5 14.8 14.1 69 0.0 3.2 64 10.8 113
09:00 - 09:30 14.3 14.6 14.1 72 0.0 3.6 81 13.0 127
09:30 - 10:00 14.9 15.1 14.6 67 0.0 4.3 85 14.4 138
10:00 - 10:30 15.5 15.8 15.1 65 0.0 5.0 97 16.2 207
10:30 - 11:00 15.7 15.9 15.6 59 0.0 5.4 66 20.5 134
11:00 - 11:30 16.4 16.8 15.9 57 0.0 6.1 119 20.5 192
11:30 - 12:00 17.5 18.2 16.8 54 0.0 6.1 117 19.1 257
12:00 - 12:30 18.2 18.4 18.1 49 0.0 10.8 119 29.5 250
12:30 - 13:00 18.3 18.4 18.1 44 0.0 10.1 113 22.7 200
13:00 - 13:30 18.5 18.7 18.4 44 0.0 12.6 121 25.2 200
13:30 - 14:00 18.7 18.7 18.7 43 0.0 15.5 125 32.8 180
14:00 - 14:30 18.8 18.9 18.6 43 0.0 14.8 120 31.3 207
14:30 - 15:00 18.9 18.9 18.8 44 0.0 9.0 116 23.4 192
15:00 - 15:30 19.0 19.1 18.9 44 0.0 10.8 121 28.4 161
15:30 - 16:00 18.6 19.1 18.3 48 0.0 14.4 127 28.1 164
16:00 - 16:30 18.1 18.3 17.9 51 0.0 9.4 125 22.0 106
16:30 - 17:00 18.1 18.2 17.9 47 0.0 8.3 119 20.5 109
17:00 - 17:30 17.9 18.1 17.6 46 0.0 13.7 122 33.8 84
17:30 - 18:00 17.3 17.5 17.2 46 0.0 9.0 116 28.8 39
18:00 - 18:30 16.9 17.1 16.7 43 0.0 9.4 123 19.1 12
18:30 - 19:00 16.8 16.9 16.7 39 0.0 9.0 119 24.5 0
19:00 - 19:30 16.6 16.8 16.4 37 0.0 13.0 123 31.3 0
19:30 - 20:00 16.2 16.6 15.9 36 0.0 15.1 125 25.2 0
20:00 - 20:30 15.8 15.9 15.6 38 0.0 13.3 125 26.6 0
20:30 - 21:00 15.6 15.7 15.3 41 0.0 10.1 118 22.7 0
21:00 - 21:30 15.4 15.5 15.3 43 0.0 10.4 112 24.5 0
21:30 - 22:00 15.4 15.5 15.3 43 0.0 9.4 113 24.5 0

Les dades en taronja només han passat un control de qualitat automàtic. Resta pendent la seva validació definitiva.